createdAt,value
2023-03-27T00:00:11.834Z,0.00
2023-03-27T00:00:43.364Z,0.00
2023-03-27T00:01:15.410Z,0.00
2023-03-27T00:01:47.473Z,0.00
2023-03-27T00:02:19.403Z,0.00
2023-03-27T00:02:51.867Z,0.00
2023-03-27T00:03:23.406Z,0.00
2023-03-27T00:03:55.367Z,0.00
2023-03-27T00:04:27.196Z,0.00
2023-03-27T00:04:59.231Z,0.00
2023-03-27T00:05:31.348Z,0.00
2023-03-27T00:06:03.269Z,0.00
2023-03-27T00:06:35.081Z,0.00
2023-03-27T00:07:07.314Z,0.00
2023-03-27T00:07:39.151Z,0.00
2023-03-27T00:08:11.246Z,0.00
2023-03-27T00:08:42.961Z,0.00
2023-03-27T00:09:15.028Z,0.00
2023-03-27T00:09:47.092Z,0.00
2023-03-27T00:10:19.124Z,0.00
2023-03-27T00:10:51.036Z,0.00
2023-03-27T00:11:22.912Z,0.00
2023-03-27T00:11:54.973Z,0.00
2023-03-27T00:12:26.963Z,0.00
2023-03-27T00:12:58.885Z,0.00
2023-03-27T00:13:31.002Z,0.00
2023-03-27T00:14:02.852Z,0.00
2023-03-27T00:14:34.880Z,0.00
2023-03-27T00:15:07.019Z,0.00
2023-03-27T00:15:38.966Z,0.00
2023-03-27T00:16:10.917Z,0.00
2023-03-27T00:16:43.321Z,0.00
2023-03-27T00:17:14.800Z,0.00
2023-03-27T00:17:46.900Z,0.00
2023-03-27T00:18:18.706Z,0.00
2023-03-27T00:18:50.777Z,0.00
2023-03-27T00:19:22.549Z,0.00
2023-03-27T00:19:54.632Z,0.00
2023-03-27T00:20:26.596Z,0.00
2023-03-27T00:20:58.691Z,0.00
2023-03-27T00:21:30.925Z,0.00
2023-03-27T00:22:02.463Z,0.00
2023-03-27T00:22:34.473Z,0.00
2023-03-27T00:23:06.499Z,0.00
2023-03-27T00:23:38.552Z,0.00
2023-03-27T00:24:10.501Z,0.00
2023-03-27T00:24:42.384Z,0.00
2023-03-27T00:25:14.431Z,0.00
2023-03-27T00:25:46.350Z,0.00
2023-03-27T00:26:18.407Z,0.00
2023-03-27T00:26:50.386Z,0.00
2023-03-27T00:27:22.359Z,0.00
2023-03-27T00:27:54.409Z,0.00
2023-03-27T00:28:26.162Z,0.00
2023-03-27T00:28:58.227Z,0.00
2023-03-27T00:29:30.264Z,0.00
2023-03-27T00:30:02.392Z,0.00
2023-03-27T00:30:34.141Z,0.00
2023-03-27T00:31:06.121Z,0.00
2023-03-27T00:31:38.175Z,0.00
2023-03-27T00:32:10.190Z,0.00
2023-03-27T00:32:42.095Z,0.00
2023-03-27T00:33:14.101Z,0.00
2023-03-27T00:33:46.074Z,0.00
2023-03-27T00:34:18.128Z,0.00
2023-03-27T00:34:49.919Z,0.00
2023-03-27T00:35:21.994Z,0.00
2023-03-27T00:35:53.997Z,0.00
2023-03-27T00:36:25.988Z,0.00
2023-03-27T00:36:57.791Z,0.00
2023-03-27T00:37:29.846Z,0.00
2023-03-27T00:38:01.921Z,0.00
2023-03-27T00:38:34.085Z,0.00
2023-03-27T00:39:05.711Z,0.00
2023-03-27T00:39:37.764Z,0.00
2023-03-27T00:40:09.840Z,0.00
2023-03-27T00:40:41.868Z,0.00
2023-03-27T00:41:13.641Z,0.00
2023-03-27T00:41:45.669Z,0.00
2023-03-27T00:42:17.719Z,0.00
2023-03-27T00:42:49.809Z,0.00
2023-03-27T00:43:21.559Z,0.00
2023-03-27T00:43:53.563Z,0.00
2023-03-27T00:44:25.643Z,0.00
2023-03-27T00:44:57.631Z,0.00
2023-03-27T00:45:29.581Z,0.00
2023-03-27T00:46:01.584Z,0.00
2023-03-27T00:46:33.537Z,0.00
2023-03-27T00:47:05.599Z,0.00
2023-03-27T00:47:37.462Z,0.00
2023-03-27T00:48:09.368Z,0.00
2023-03-27T00:48:41.431Z,0.00
2023-03-27T00:49:13.548Z,0.00
2023-03-27T00:49:45.273Z,0.00
2023-03-27T00:50:17.327Z,0.00
2023-03-27T00:50:49.333Z,0.00
2023-03-27T00:51:21.436Z,0.00
2023-03-27T00:51:53.382Z,0.00
2023-03-27T00:52:25.200Z,0.00
2023-03-27T00:52:57.201Z,0.00
2023-03-27T00:53:29.286Z,0.00
2023-03-27T00:54:01.208Z,0.00
2023-03-27T00:54:33.827Z,0.00
2023-03-27T00:55:05.194Z,0.00
2023-03-27T00:55:37.175Z,0.00
2023-03-27T00:56:08.993Z,0.00
2023-03-27T00:56:41.090Z,0.00
2023-03-27T00:57:13.049Z,0.00
2023-03-27T00:57:45.494Z,0.00
2023-03-27T00:58:17.107Z,0.00
2023-03-27T00:58:48.945Z,0.00
2023-03-27T00:59:21.170Z,0.00
2023-03-27T00:59:53.009Z,0.00
2023-03-27T01:00:25.149Z,0.00
2023-03-27T01:00:57.233Z,0.00
2023-03-27T01:01:28.961Z,0.00
2023-03-27T01:02:01.077Z,0.00
2023-03-27T01:02:33.042Z,0.00
2023-03-27T01:03:04.889Z,0.00
2023-03-27T01:03:36.934Z,0.00
2023-03-27T01:04:08.807Z,0.00
2023-03-27T01:04:40.997Z,0.00
2023-03-27T01:05:12.665Z,0.00
2023-03-27T01:05:44.693Z,0.00
2023-03-27T01:06:16.816Z,0.00
2023-03-27T01:06:48.730Z,0.00
2023-03-27T01:07:20.709Z,0.00
2023-03-27T01:08:01.174Z,0.00
2023-03-27T01:08:24.610Z,0.00
2023-03-27T01:08:56.598Z,0.00
2023-03-27T01:09:28.453Z,0.00
2023-03-27T01:10:00.742Z,0.00
2023-03-27T01:10:32.520Z,0.00
2023-03-27T01:11:04.548Z,0.00
2023-03-27T01:11:36.358Z,0.00
2023-03-27T01:12:08.390Z,0.00
2023-03-27T01:12:40.513Z,0.00
2023-03-27T01:13:12.480Z,0.00
2023-03-27T01:13:44.276Z,0.00
2023-03-27T01:14:16.332Z,0.00
2023-03-27T01:14:48.306Z,0.00
2023-03-27T01:15:20.526Z,0.00
2023-03-27T01:15:52.196Z,0.00
2023-03-27T01:16:24.191Z,0.00
2023-03-27T01:16:56.227Z,0.00
2023-03-27T01:17:28.246Z,0.00
2023-03-27T01:18:00.120Z,0.00
2023-03-27T01:18:32.080Z,0.00
2023-03-27T01:19:04.112Z,0.00
2023-03-27T01:19:36.196Z,0.00
2023-03-27T01:20:08.152Z,0.00
2023-03-27T01:20:40.111Z,0.00
2023-03-27T01:21:12.041Z,0.00
2023-03-27T01:21:44.099Z,0.00
2023-03-27T01:22:15.901Z,0.00
2023-03-27T01:22:47.907Z,0.00
2023-03-27T01:23:36.235Z,0.00
2023-03-27T01:23:59.530Z,0.00
2023-03-27T01:24:23.783Z,0.00
2023-03-27T01:24:55.816Z,0.00
2023-03-27T01:25:27.879Z,0.00
2023-03-27T01:25:59.901Z,0.00
2023-03-27T01:26:36.435Z,0.00
2023-03-27T01:27:03.843Z,0.00
2023-03-27T01:27:35.776Z,0.00
2023-03-27T01:28:07.802Z,0.00
2023-03-27T01:28:39.843Z,0.00
2023-03-27T01:29:11.639Z,0.00
2023-03-27T01:29:43.713Z,0.00
2023-03-27T01:30:15.807Z,0.00
2023-03-27T01:30:47.745Z,0.00
2023-03-27T01:31:19.619Z,0.00
2023-03-27T01:31:51.671Z,0.00
2023-03-27T01:32:23.647Z,0.00
2023-03-27T01:32:55.673Z,0.00
2023-03-27T01:33:27.478Z,0.00
2023-03-27T01:33:59.588Z,0.00
2023-03-27T01:34:31.490Z,0.00
2023-03-27T01:35:03.747Z,0.00
2023-03-27T01:35:35.489Z,0.00
2023-03-27T01:36:07.393Z,0.00
2023-03-27T01:36:39.448Z,0.00
2023-03-27T01:37:11.466Z,0.00
2023-03-27T01:37:43.288Z,0.00
2023-03-27T01:38:15.418Z,0.00
2023-03-27T01:38:47.284Z,0.00
2023-03-27T01:39:19.350Z,0.00
2023-03-27T01:39:51.243Z,0.00
2023-03-27T01:40:23.249Z,0.00
2023-03-27T01:40:55.600Z,0.00
2023-03-27T01:41:27.268Z,0.00
2023-03-27T01:41:59.110Z,0.00
2023-03-27T01:42:31.181Z,0.00
2023-03-27T01:43:03.137Z,0.00
2023-03-27T01:43:35.155Z,0.00
2023-03-27T01:44:06.992Z,0.00
2023-03-27T01:44:44.110Z,0.00
2023-03-27T01:45:11.424Z,0.00
2023-03-27T01:45:43.125Z,0.00
2023-03-27T01:46:15.008Z,0.00
2023-03-27T01:46:46.945Z,0.00
2023-03-27T01:47:19.006Z,0.00
2023-03-27T01:47:51.265Z,0.00
2023-03-27T01:48:22.788Z,0.00
2023-03-27T01:48:54.812Z,0.00
2023-03-27T01:49:26.912Z,0.00
2023-03-27T01:49:59.116Z,0.00
2023-03-27T01:50:30.847Z,0.00
2023-03-27T01:51:02.741Z,0.00
2023-03-27T01:51:34.863Z,0.00
2023-03-27T01:52:06.792Z,0.00
2023-03-27T01:52:38.605Z,0.00
2023-03-27T01:53:10.802Z,0.00
2023-03-27T01:53:42.757Z,0.00
2023-03-27T01:54:14.737Z,0.00
2023-03-27T01:54:46.562Z,0.00
2023-03-27T01:55:18.569Z,0.00
2023-03-27T01:55:50.832Z,0.00
2023-03-27T01:56:22.636Z,0.00
2023-03-27T01:56:54.473Z,0.00
2023-03-27T01:57:26.467Z,0.00
2023-03-27T01:57:58.484Z,0.00
2023-03-27T01:58:30.660Z,0.00
2023-03-27T01:59:02.517Z,0.00
2023-03-27T01:59:34.352Z,0.00
2023-03-27T02:00:17.988Z,0.00
2023-03-27T02:00:51.056Z,0.00
2023-03-27T02:01:10.846Z,0.00
2023-03-27T02:01:42.349Z,0.00
2023-03-27T02:02:14.341Z,0.00
2023-03-27T02:02:46.346Z,0.00
2023-03-27T02:03:18.335Z,0.00
2023-03-27T02:03:50.228Z,0.00
2023-03-27T02:04:22.223Z,0.00
2023-03-27T02:04:54.291Z,0.00
2023-03-27T02:05:26.257Z,0.00
2023-03-27T02:05:58.075Z,0.00
2023-03-27T02:06:30.266Z,0.00
2023-03-27T02:07:02.353Z,0.00
2023-03-27T02:07:34.174Z,0.00
2023-03-27T02:08:06.019Z,0.00
2023-03-27T02:08:38.017Z,0.00
2023-03-27T02:09:10.062Z,0.00
2023-03-27T02:09:42.511Z,0.00
2023-03-27T02:10:13.943Z,0.00
2023-03-27T02:10:45.904Z,0.00
2023-03-27T02:11:17.958Z,0.00
2023-03-27T02:11:49.985Z,0.00
2023-03-27T02:12:21.792Z,0.00
2023-03-27T02:12:53.850Z,0.00
2023-03-27T02:13:25.897Z,0.00
2023-03-27T02:13:57.873Z,0.00
2023-03-27T02:14:29.775Z,0.00
2023-03-27T02:15:24.200Z,0.00
2023-03-27T02:15:33.773Z,0.00
2023-03-27T02:16:05.841Z,0.00
2023-03-27T02:16:37.684Z,0.00
2023-03-27T02:17:09.651Z,0.00
2023-03-27T02:17:41.724Z,0.00
2023-03-27T02:18:13.817Z,0.00
2023-03-27T02:18:45.507Z,0.00
2023-03-27T02:19:17.618Z,0.00
2023-03-27T02:19:49.657Z,0.00
2023-03-27T02:20:21.697Z,0.00
2023-03-27T02:20:53.666Z,0.00
2023-03-27T02:21:25.465Z,0.00
2023-03-27T02:21:57.843Z,0.00
2023-03-27T02:22:38.105Z,0.00
2023-03-27T02:23:01.546Z,0.00
2023-03-27T02:23:33.465Z,0.00
2023-03-27T02:24:05.450Z,0.00
2023-03-27T02:24:37.360Z,0.00
2023-03-27T02:25:09.314Z,0.00
2023-03-27T02:25:41.398Z,0.00
2023-03-27T02:26:13.368Z,0.00
2023-03-27T02:26:45.398Z,0.00
2023-03-27T02:27:17.209Z,0.00
2023-03-27T02:27:49.261Z,0.00
2023-03-27T02:28:21.283Z,0.00
2023-03-27T02:28:53.255Z,0.00
2023-03-27T02:29:25.128Z,0.00
2023-03-27T02:29:57.456Z,0.00
2023-03-27T02:30:29.278Z,0.00
2023-03-27T02:31:05.718Z,0.00
2023-03-27T02:31:34.880Z,0.00
2023-03-27T02:32:05.110Z,0.00
2023-03-27T02:32:37.267Z,0.00
2023-03-27T02:33:08.999Z,0.00
2023-03-27T02:33:41.082Z,0.00
2023-03-27T02:34:13.018Z,0.00
2023-03-27T02:34:45.015Z,0.00
2023-03-27T02:35:16.849Z,0.00
2023-03-27T02:35:48.864Z,0.00
2023-03-27T02:36:20.992Z,0.00
2023-03-27T02:36:52.924Z,0.00
2023-03-27T02:37:24.717Z,0.00
2023-03-27T02:37:56.821Z,0.00
2023-03-27T02:38:28.817Z,0.00
2023-03-27T02:39:01.057Z,0.00
2023-03-27T02:39:32.642Z,0.00
2023-03-27T02:40:04.809Z,0.00
2023-03-27T02:40:39.921Z,0.00
2023-03-27T02:41:09.230Z,0.00
2023-03-27T02:41:40.698Z,0.00
2023-03-27T02:42:12.616Z,0.00
2023-03-27T02:42:44.613Z,0.00
2023-03-27T02:43:16.679Z,0.00
2023-03-27T02:43:48.479Z,0.00
2023-03-27T02:44:20.585Z,0.00
2023-03-27T02:44:52.582Z,0.00
2023-03-27T02:45:24.689Z,0.00
2023-03-27T02:45:56.470Z,0.00
2023-03-27T02:46:28.543Z,0.00
2023-03-27T02:47:00.615Z,0.00
2023-03-27T02:47:32.495Z,0.00
2023-03-27T02:48:04.345Z,0.00
2023-03-27T02:48:36.341Z,0.00
2023-03-27T02:49:08.356Z,0.00
2023-03-27T02:49:40.549Z,0.00
2023-03-27T02:50:12.262Z,0.00
2023-03-27T02:50:44.242Z,0.00
2023-03-27T02:51:16.281Z,0.00
2023-03-27T02:51:48.281Z,0.00
2023-03-27T02:52:20.161Z,0.00
2023-03-27T02:52:52.149Z,0.00
2023-03-27T02:53:24.188Z,0.00
2023-03-27T02:53:56.346Z,0.00
2023-03-27T02:54:28.106Z,0.00
2023-03-27T02:55:00.136Z,0.00
2023-03-27T02:55:32.137Z,0.00
2023-03-27T02:56:04.210Z,0.00
2023-03-27T02:56:35.990Z,0.00
2023-03-27T02:57:08.040Z,0.00
2023-03-27T02:57:40.047Z,0.00
2023-03-27T02:58:12.058Z,0.00
2023-03-27T02:58:43.891Z,0.00
2023-03-27T02:59:15.876Z,0.00
2023-03-27T02:59:47.934Z,0.00
2023-03-27T03:00:20.138Z,0.00
2023-03-27T03:00:51.792Z,0.00
2023-03-27T03:01:23.812Z,0.00
2023-03-27T03:01:55.892Z,0.00
2023-03-27T03:02:27.910Z,0.00
2023-03-27T03:02:59.871Z,0.00
2023-03-27T03:03:31.702Z,0.00
2023-03-27T03:04:03.898Z,0.00
2023-03-27T03:04:35.753Z,0.00
2023-03-27T03:05:07.586Z,0.00
2023-03-27T03:05:39.678Z,0.00
2023-03-27T03:06:11.705Z,0.00
2023-03-27T03:06:43.653Z,0.00
2023-03-27T03:07:15.505Z,0.00
2023-03-27T03:07:47.538Z,0.00
2023-03-27T03:08:19.560Z,0.00
2023-03-27T03:08:51.551Z,0.00
2023-03-27T03:09:23.411Z,0.00
2023-03-27T03:09:55.459Z,0.00
2023-03-27T03:10:27.446Z,0.00
2023-03-27T03:10:59.517Z,0.00
2023-03-27T03:11:31.489Z,0.00
2023-03-27T03:12:03.384Z,0.00
2023-03-27T03:12:35.376Z,0.00
2023-03-27T03:13:07.454Z,0.00
2023-03-27T03:13:39.276Z,0.00
2023-03-27T03:14:11.361Z,0.00
2023-03-27T03:14:43.316Z,0.00
2023-03-27T03:15:15.439Z,0.00
2023-03-27T03:15:48.395Z,0.00
2023-03-27T03:16:19.302Z,0.00
2023-03-27T03:16:51.392Z,0.00
2023-03-27T03:17:23.254Z,0.00
2023-03-27T03:17:55.485Z,0.00
2023-03-27T03:18:27.075Z,0.00
2023-03-27T03:18:59.098Z,0.00
2023-03-27T03:19:31.313Z,0.00
2023-03-27T03:20:03.075Z,0.00
2023-03-27T03:20:35.179Z,0.00
2023-03-27T03:21:06.998Z,0.00
2023-03-27T03:21:39.087Z,0.00
2023-03-27T03:22:11.096Z,0.00
2023-03-27T03:22:42.893Z,0.00
2023-03-27T03:23:14.952Z,0.00
2023-03-27T03:23:57.622Z,0.00
2023-03-27T03:24:18.802Z,0.00
2023-03-27T03:24:50.958Z,0.00
2023-03-27T03:25:22.886Z,0.00
2023-03-27T03:25:54.856Z,0.00
2023-03-27T03:26:26.747Z,0.00
2023-03-27T03:26:58.704Z,0.00
2023-03-27T03:27:30.911Z,0.00
2023-03-27T03:28:02.798Z,0.00
2023-03-27T03:28:34.620Z,0.00
2023-03-27T03:29:06.668Z,0.00
2023-03-27T03:29:38.790Z,0.00
2023-03-27T03:30:11.206Z,0.00
2023-03-27T03:30:42.565Z,0.00
2023-03-27T03:31:14.567Z,0.00
2023-03-27T03:31:46.611Z,0.00
2023-03-27T03:32:18.625Z,0.00
2023-03-27T03:32:50.543Z,0.00
2023-03-27T03:33:22.453Z,0.00
2023-03-27T03:33:54.475Z,0.00
2023-03-27T03:34:26.515Z,0.00
2023-03-27T03:34:58.345Z,0.00
2023-03-27T03:35:30.451Z,0.00
2023-03-27T03:36:02.491Z,0.00
2023-03-27T03:36:34.421Z,0.00
2023-03-27T03:37:06.348Z,0.00
2023-03-27T03:37:38.304Z,0.00
2023-03-27T03:38:10.420Z,0.00
2023-03-27T03:38:42.299Z,0.00
2023-03-27T03:39:14.481Z,0.00
2023-03-27T03:39:46.166Z,0.00
2023-03-27T03:40:18.209Z,0.00
2023-03-27T03:40:50.292Z,0.00
2023-03-27T03:41:22.108Z,0.00
2023-03-27T03:41:54.171Z,0.00
2023-03-27T03:42:26.138Z,0.00
2023-03-27T03:42:58.144Z,0.00
2023-03-27T03:43:29.971Z,0.00
2023-03-27T03:44:02.043Z,0.00
2023-03-27T03:44:34.032Z,0.00
2023-03-27T03:45:06.350Z,0.00
2023-03-27T03:45:37.961Z,0.00
2023-03-27T03:46:10.018Z,0.00
2023-03-27T03:46:41.953Z,0.00
2023-03-27T03:47:13.963Z,0.00
2023-03-27T03:47:45.841Z,0.00
2023-03-27T03:48:17.841Z,0.00
2023-03-27T03:48:49.852Z,0.00
2023-03-27T03:49:21.931Z,0.00
2023-03-27T03:49:53.725Z,0.00
2023-03-27T03:50:25.848Z,0.00
2023-03-27T03:50:58.123Z,0.00
2023-03-27T03:51:29.840Z,0.00
2023-03-27T03:52:03.471Z,0.00
2023-03-27T03:52:33.657Z,0.00
2023-03-27T03:53:05.665Z,0.00
2023-03-27T03:53:37.734Z,0.00
2023-03-27T03:54:09.652Z,0.00
2023-03-27T03:54:41.606Z,0.00
2023-03-27T03:55:13.658Z,0.00
2023-03-27T03:55:45.444Z,0.00
2023-03-27T03:56:17.473Z,0.00
2023-03-27T03:56:49.566Z,0.00
2023-03-27T03:57:21.511Z,0.00
2023-03-27T03:57:53.360Z,0.00
2023-03-27T03:58:34.450Z,0.00
2023-03-27T03:58:57.463Z,0.00
2023-03-27T03:59:29.636Z,0.00
2023-03-27T04:00:01.546Z,0.00
2023-03-27T04:00:33.327Z,0.00
2023-03-27T04:01:05.329Z,0.00
2023-03-27T04:01:37.414Z,0.00
2023-03-27T04:02:09.233Z,0.00
2023-03-27T04:02:41.426Z,0.00
2023-03-27T04:03:13.363Z,0.00
2023-03-27T04:03:45.331Z,0.00
2023-03-27T04:04:17.097Z,0.00
2023-03-27T04:04:49.155Z,0.00
2023-03-27T04:05:21.310Z,0.00
2023-03-27T04:05:53.217Z,0.00
2023-03-27T04:06:25.024Z,0.00
2023-03-27T04:06:57.498Z,0.00
2023-03-27T04:07:29.106Z,0.00
2023-03-27T04:08:01.253Z,0.00
2023-03-27T04:08:33.606Z,0.00
2023-03-27T04:09:04.936Z,0.00
2023-03-27T04:09:37.013Z,0.00
2023-03-27T04:10:09.116Z,0.00
2023-03-27T04:10:40.907Z,0.00
2023-03-27T04:11:12.854Z,0.00
2023-03-27T04:11:44.863Z,0.00
2023-03-27T04:12:16.958Z,0.00
2023-03-27T04:12:48.764Z,0.00
2023-03-27T04:13:20.935Z,0.00
2023-03-27T04:13:52.834Z,0.00
2023-03-27T04:14:24.853Z,0.00
2023-03-27T04:14:56.657Z,0.00
2023-03-27T04:15:28.871Z,0.00
2023-03-27T04:16:05.920Z,0.00
2023-03-27T04:16:33.567Z,0.00
2023-03-27T04:17:04.668Z,0.00
2023-03-27T04:17:36.922Z,0.00
2023-03-27T04:18:08.775Z,0.00
2023-03-27T04:18:41.029Z,0.00
2023-03-27T04:19:12.476Z,0.00
2023-03-27T04:19:44.687Z,0.00
2023-03-27T04:20:16.552Z,0.00
2023-03-27T04:20:48.537Z,0.00
2023-03-27T04:21:20.440Z,0.00
2023-03-27T04:21:52.407Z,0.00
2023-03-27T04:22:24.400Z,0.00
2023-03-27T04:22:56.460Z,0.00
2023-03-27T04:23:28.290Z,0.00
2023-03-27T04:24:00.337Z,0.00
2023-03-27T04:24:32.337Z,0.00
2023-03-27T04:25:04.376Z,0.00
2023-03-27T04:25:36.211Z,0.00
2023-03-27T04:26:08.341Z,0.00
2023-03-27T04:26:40.266Z,0.00
2023-03-27T04:27:12.297Z,0.00
2023-03-27T04:27:44.133Z,0.00
2023-03-27T04:28:16.138Z,0.00
2023-03-27T04:28:48.174Z,0.00
2023-03-27T04:29:20.187Z,0.00
2023-03-27T04:29:52.006Z,0.00
2023-03-27T04:30:24.134Z,0.00
2023-03-27T04:30:56.188Z,0.00
2023-03-27T04:31:28.167Z,0.00
2023-03-27T04:31:59.981Z,0.00
2023-03-27T04:32:31.950Z,0.00
2023-03-27T04:33:04.047Z,0.01
2023-03-27T04:33:36.036Z,0.01
2023-03-27T04:34:07.925Z,0.01
2023-03-27T04:34:39.865Z,0.01
2023-03-27T04:35:11.904Z,0.01
2023-03-27T04:35:43.971Z,0.01
2023-03-27T04:36:15.898Z,0.02
2023-03-27T04:36:47.798Z,0.02
2023-03-27T04:37:23.078Z,0.02
2023-03-27T04:37:51.843Z,0.02
2023-03-27T04:38:23.827Z,0.02
2023-03-27T04:38:55.721Z,0.02
2023-03-27T04:39:27.764Z,0.02
2023-03-27T04:39:59.739Z,0.03
2023-03-27T04:40:31.566Z,0.03
2023-03-27T04:41:03.611Z,0.04
2023-03-27T04:41:35.653Z,0.04
2023-03-27T04:42:07.747Z,0.05
2023-03-27T04:42:39.682Z,0.05
2023-03-27T04:43:11.627Z,0.06
2023-03-27T04:43:43.563Z,0.06
2023-03-27T04:44:15.596Z,0.07
2023-03-27T04:44:47.385Z,0.08
2023-03-27T04:45:19.511Z,0.09
2023-03-27T04:45:51.571Z,0.09
2023-03-27T04:46:23.493Z,0.10
2023-03-27T04:46:55.565Z,0.12
2023-03-27T04:47:27.350Z,0.13
2023-03-27T04:47:59.379Z,0.14
2023-03-27T04:48:31.382Z,0.16
2023-03-27T04:49:03.398Z,0.17
2023-03-27T04:49:35.255Z,0.20
2023-03-27T04:50:07.280Z,0.21
2023-03-27T04:50:39.279Z,0.24
2023-03-27T04:51:11.335Z,0.26
2023-03-27T04:51:43.116Z,0.28
2023-03-27T04:52:15.153Z,0.31
2023-03-27T04:52:48.487Z,0.34
2023-03-27T04:53:19.241Z,0.37
2023-03-27T04:53:51.258Z,0.40
2023-03-27T04:54:23.066Z,0.43
2023-03-27T04:54:55.108Z,0.47
2023-03-27T04:55:27.157Z,0.51
2023-03-27T04:55:59.135Z,0.55
2023-03-27T04:56:31.190Z,0.59
2023-03-27T04:57:03.054Z,0.64
2023-03-27T04:57:35.197Z,0.68
2023-03-27T04:58:06.919Z,0.73
2023-03-27T04:58:38.981Z,0.79
2023-03-27T04:59:11.088Z,0.85
2023-03-27T04:59:42.985Z,0.92
2023-03-27T05:00:15.114Z,0.99
2023-03-27T05:00:46.884Z,1.06
2023-03-27T05:01:18.914Z,1.14
2023-03-27T05:01:51.083Z,1.22
2023-03-27T05:02:22.766Z,1.29
2023-03-27T05:02:54.749Z,1.38
2023-03-27T05:03:26.791Z,1.47
2023-03-27T05:03:58.785Z,1.56
2023-03-27T05:04:30.820Z,1.66
2023-03-27T05:05:02.670Z,1.76
2023-03-27T05:05:34.711Z,1.86
2023-03-27T05:06:06.725Z,1.97
2023-03-27T05:06:40.461Z,2.08
2023-03-27T05:07:10.816Z,2.20
2023-03-27T05:07:42.568Z,2.32
2023-03-27T05:08:14.613Z,2.45
2023-03-27T05:08:46.437Z,2.57
2023-03-27T05:09:18.491Z,2.71
2023-03-27T05:09:50.628Z,2.85
2023-03-27T05:10:22.545Z,2.99
2023-03-27T05:10:54.534Z,3.14
2023-03-27T05:11:26.386Z,3.30
2023-03-27T05:11:58.377Z,3.46
2023-03-27T05:12:31.122Z,3.61
2023-03-27T05:13:02.260Z,3.79
2023-03-27T05:13:34.316Z,3.95
2023-03-27T05:14:06.399Z,4.14
2023-03-27T05:14:38.328Z,4.32
2023-03-27T05:15:10.541Z,4.50
2023-03-27T05:15:42.197Z,4.70
2023-03-27T05:16:14.252Z,4.89
2023-03-27T05:16:46.284Z,5.10
2023-03-27T05:17:18.058Z,5.30
2023-03-27T05:17:50.144Z,5.50
2023-03-27T05:18:22.113Z,5.71
2023-03-27T05:18:54.140Z,5.90
2023-03-27T05:19:26.809Z,6.10
2023-03-27T05:19:57.996Z,6.31
2023-03-27T05:20:30.045Z,6.51
2023-03-27T05:21:02.041Z,6.72
2023-03-27T05:21:34.392Z,6.94
2023-03-27T05:22:05.916Z,7.15
2023-03-27T05:22:37.965Z,7.37
2023-03-27T05:23:09.991Z,7.58
2023-03-27T05:23:41.808Z,7.81
2023-03-27T05:24:13.847Z,8.02
2023-03-27T05:24:45.865Z,8.24
2023-03-27T05:25:17.884Z,8.45
2023-03-27T05:25:59.269Z,8.68
2023-03-27T05:26:21.824Z,8.90
2023-03-27T05:26:53.869Z,9.14
2023-03-27T05:27:25.790Z,9.39
2023-03-27T05:27:57.637Z,9.65
2023-03-27T05:28:29.642Z,9.91
2023-03-27T05:29:01.655Z,10.16
2023-03-27T05:29:46.977Z,10.42
2023-03-27T05:30:05.834Z,10.70
2023-03-27T05:30:37.791Z,11.08
2023-03-27T05:31:09.615Z,11.57
2023-03-27T05:31:41.616Z,12.12
2023-03-27T05:32:13.427Z,12.60
2023-03-27T05:32:45.517Z,12.81
2023-03-27T05:33:17.494Z,12.83
2023-03-27T05:33:49.609Z,12.80
2023-03-27T05:34:21.439Z,12.84
2023-03-27T05:34:53.404Z,13.35
2023-03-27T05:35:25.445Z,14.38
2023-03-27T05:35:57.615Z,15.52
2023-03-27T05:36:29.254Z,16.50
2023-03-27T05:37:01.359Z,17.11
2023-03-27T05:37:33.758Z,17.41
2023-03-27T05:38:05.393Z,17.63
2023-03-27T05:38:37.330Z,18.18
2023-03-27T05:39:09.189Z,19.10
2023-03-27T05:39:41.321Z,19.77
2023-03-27T05:40:13.244Z,19.36
2023-03-27T05:40:45.270Z,18.03
2023-03-27T05:41:17.067Z,16.46
2023-03-27T05:41:49.206Z,15.30
2023-03-27T05:42:21.319Z,14.65
2023-03-27T05:42:53.150Z,14.59
2023-03-27T05:43:25.138Z,14.98
2023-03-27T05:43:57.096Z,15.24
2023-03-27T05:44:29.073Z,15.33
2023-03-27T05:45:01.543Z,15.48
2023-03-27T05:45:32.934Z,15.68
2023-03-27T05:46:05.053Z,16.19
2023-03-27T05:46:36.980Z,16.35
2023-03-27T05:47:08.990Z,16.61
2023-03-27T05:47:41.100Z,16.74
2023-03-27T05:48:12.827Z,16.98
2023-03-27T05:48:44.937Z,17.77
2023-03-27T05:49:16.866Z,18.15
2023-03-27T05:49:48.717Z,18.52
2023-03-27T05:50:20.925Z,18.65
2023-03-27T05:50:52.758Z,18.71
2023-03-27T05:51:24.815Z,19.57
2023-03-27T05:51:56.614Z,19.81
2023-03-27T05:52:28.942Z,20.57
2023-03-27T05:53:00.800Z,21.16
2023-03-27T05:53:32.731Z,21.58
2023-03-27T05:54:04.603Z,21.74
2023-03-27T05:54:36.567Z,21.59
2023-03-27T05:55:08.605Z,21.67
2023-03-27T05:55:40.837Z,21.86
2023-03-27T05:56:12.495Z,22.15
2023-03-27T05:56:44.527Z,22.60
2023-03-27T05:57:16.597Z,23.05
2023-03-27T05:57:48.525Z,23.26
2023-03-27T05:58:20.449Z,23.09
2023-03-27T05:58:52.370Z,23.02
2023-03-27T05:59:24.431Z,23.18
2023-03-27T05:59:56.443Z,23.34
2023-03-27T06:00:28.378Z,23.32
2023-03-27T06:01:00.351Z,23.29
2023-03-27T06:01:32.339Z,23.52
2023-03-27T06:02:04.509Z,24.01
2023-03-27T06:02:36.229Z,24.64
2023-03-27T06:03:08.323Z,24.78
2023-03-27T06:03:40.401Z,24.58
2023-03-27T06:04:12.299Z,24.56
2023-03-27T06:04:44.164Z,25.12
2023-03-27T06:05:16.125Z,26.05
2023-03-27T06:05:48.223Z,26.85
2023-03-27T06:06:20.165Z,27.61
2023-03-27T06:06:52.004Z,27.52
2023-03-27T06:07:24.198Z,27.09
2023-03-27T06:07:56.045Z,25.69
2023-03-27T06:08:28.096Z,25.76
2023-03-27T06:08:59.885Z,26.35
2023-03-27T06:09:32.019Z,26.64
2023-03-27T06:10:04.025Z,26.80
2023-03-27T06:10:35.980Z,26.87
2023-03-27T06:11:07.851Z,27.09
2023-03-27T06:11:39.835Z,27.37
2023-03-27T06:12:11.851Z,27.55
2023-03-27T06:12:43.923Z,27.74
2023-03-27T06:13:15.713Z,27.87
2023-03-27T06:13:47.766Z,27.97
2023-03-27T06:14:19.791Z,28.20
2023-03-27T06:14:51.864Z,28.79
2023-03-27T06:15:23.719Z,29.41
2023-03-27T06:15:55.903Z,29.64
2023-03-27T06:16:27.745Z,29.86
2023-03-27T06:16:59.725Z,29.26
2023-03-27T06:17:31.625Z,29.34
2023-03-27T06:18:03.655Z,29.60
2023-03-27T06:18:35.567Z,30.16
2023-03-27T06:19:07.695Z,30.67
2023-03-27T06:19:39.437Z,31.92
2023-03-27T06:20:11.497Z,32.45
2023-03-27T06:20:43.497Z,32.72
2023-03-27T06:21:15.523Z,32.86
2023-03-27T06:21:47.531Z,33.01
2023-03-27T06:22:19.387Z,32.79
2023-03-27T06:22:51.425Z,32.95
2023-03-27T06:23:23.490Z,33.16
2023-03-27T06:23:55.443Z,35.19
2023-03-27T06:24:27.280Z,34.52
2023-03-27T06:24:59.345Z,32.31
2023-03-27T06:25:31.611Z,31.89
2023-03-27T06:26:03.383Z,32.14
2023-03-27T06:26:35.228Z,33.83
2023-03-27T06:27:08.629Z,33.24
2023-03-27T06:27:39.257Z,38.88
2023-03-27T06:28:11.422Z,39.97
2023-03-27T06:28:43.088Z,37.92
2023-03-27T06:29:15.131Z,35.02
2023-03-27T06:29:47.154Z,34.16
2023-03-27T06:30:19.442Z,36.40
2023-03-27T06:30:51.486Z,39.16
2023-03-27T06:31:23.041Z,40.83
2023-03-27T06:31:55.074Z,40.37
2023-03-27T06:32:27.743Z,37.23
2023-03-27T06:32:59.146Z,34.94
2023-03-27T06:33:31.084Z,34.66
2023-03-27T06:34:03.034Z,34.91
2023-03-27T06:34:35.031Z,35.18
2023-03-27T06:35:07.449Z,35.41
2023-03-27T06:35:38.936Z,35.61
2023-03-27T06:36:11.240Z,36.31
2023-03-27T06:36:42.883Z,34.77
2023-03-27T06:37:14.720Z,37.10
2023-03-27T06:37:48.309Z,37.10
2023-03-27T06:38:18.767Z,37.89
2023-03-27T06:38:51.217Z,37.91
2023-03-27T06:39:22.652Z,37.47
2023-03-27T06:39:54.660Z,37.31
2023-03-27T06:40:26.710Z,37.55
2023-03-27T06:40:58.729Z,37.80
2023-03-27T06:41:30.669Z,38.03
2023-03-27T06:42:02.592Z,38.00
2023-03-27T06:42:34.631Z,35.68
2023-03-27T06:43:06.812Z,35.71
2023-03-27T06:43:38.428Z,36.35
2023-03-27T06:44:10.611Z,38.08
2023-03-27T06:44:42.598Z,38.93
2023-03-27T06:45:14.620Z,39.20
2023-03-27T06:45:46.373Z,39.38
2023-03-27T06:46:18.803Z,39.71
2023-03-27T06:46:50.514Z,39.84
2023-03-27T06:47:22.563Z,40.18
2023-03-27T06:47:56.677Z,40.28
2023-03-27T06:48:26.312Z,40.34
2023-03-27T06:48:58.323Z,40.73
2023-03-27T06:49:30.455Z,41.17
2023-03-27T06:50:02.258Z,42.14
2023-03-27T06:50:34.186Z,43.09
2023-03-27T06:51:06.207Z,43.20
2023-03-27T06:51:38.245Z,42.84
2023-03-27T06:52:10.332Z,42.39
2023-03-27T06:52:42.089Z,42.33
2023-03-27T06:53:25.954Z,42.59
2023-03-27T06:53:46.141Z,43.03
2023-03-27T06:54:17.988Z,43.34
2023-03-27T06:54:50.010Z,43.45
2023-03-27T06:55:22.181Z,43.50
2023-03-27T06:55:54.207Z,43.46
2023-03-27T06:56:26.123Z,43.47
2023-03-27T06:56:57.918Z,43.54
2023-03-27T06:57:29.995Z,43.83
2023-03-27T06:58:02.053Z,43.78
2023-03-27T06:58:34.019Z,44.20
2023-03-27T06:59:05.866Z,44.27
2023-03-27T06:59:37.879Z,44.49
2023-03-27T07:00:10.397Z,44.70
2023-03-27T07:00:41.957Z,44.83
2023-03-27T07:01:13.770Z,45.43
2023-03-27T07:01:45.766Z,45.97
2023-03-27T07:02:17.775Z,46.95